createdAt,value
2023-01-20T00:02:23.064Z,6.78
2023-01-20T00:04:53.658Z,6.20
2023-01-20T00:07:25.007Z,6.93
2023-01-20T00:09:56.232Z,6.57
2023-01-20T00:12:27.119Z,6.40
2023-01-20T00:14:57.332Z,6.32
2023-01-20T00:17:29.962Z,7.22
2023-01-20T00:20:02.845Z,6.97
2023-01-20T00:22:33.659Z,6.07
2023-01-20T00:25:03.997Z,5.53
2023-01-20T00:27:34.502Z,6.10
2023-01-20T00:30:06.534Z,5.68
2023-01-20T00:32:45.731Z,5.63
2023-01-20T00:35:19.017Z,6.20
2023-01-20T00:37:49.897Z,6.60
2023-01-20T00:40:20.991Z,7.28
2023-01-20T00:42:51.356Z,6.70
2023-01-20T00:45:22.083Z,5.88
2023-01-20T00:47:52.579Z,5.90
2023-01-20T00:50:23.174Z,5.63
2023-01-20T00:52:53.668Z,16.65
2023-01-20T00:55:24.525Z,6.10
2023-01-20T00:57:55.141Z,5.93
2023-01-20T01:00:26.068Z,5.15
2023-01-20T01:02:57.219Z,4.75
2023-01-20T01:05:28.292Z,5.25
2023-01-20T01:07:58.982Z,4.20
2023-01-20T01:10:29.818Z,4.80
2023-01-20T01:13:06.243Z,4.68
2023-01-20T01:15:39.283Z,4.57
2023-01-20T01:18:09.563Z,4.70
2023-01-20T01:20:40.791Z,4.55
2023-01-20T01:23:11.382Z,4.20
2023-01-20T01:25:44.815Z,4.15
2023-01-20T01:28:15.329Z,3.95
2023-01-20T01:30:46.760Z,3.83
2023-01-20T01:33:17.409Z,4.55
2023-01-20T01:35:59.664Z,4.57
2023-01-20T01:38:30.687Z,4.80
2023-01-20T01:41:01.961Z,4.40
2023-01-20T01:43:35.514Z,4.00
2023-01-20T01:46:06.713Z,4.78
2023-01-20T01:48:46.237Z,5.93
2023-01-20T01:51:20.956Z,5.53
2023-01-20T01:53:58.649Z,5.03
2023-01-20T01:56:31.356Z,5.40
2023-01-20T01:59:03.212Z,4.50
2023-01-20T02:01:38.328Z,4.45
2023-01-20T02:04:27.367Z,4.45
2023-01-20T02:07:10.819Z,6.47
2023-01-20T02:09:41.666Z,5.28
2023-01-20T02:12:15.629Z,5.25
2023-01-20T02:14:52.189Z,5.72
2023-01-20T02:17:32.827Z,4.80
2023-01-20T02:20:15.755Z,5.10
2023-01-20T02:23:15.344Z,9.02
2023-01-20T02:26:10.862Z,6.60
2023-01-20T02:29:04.010Z,6.75
2023-01-20T02:31:55.026Z,7.55
2023-01-20T02:34:34.627Z,6.43
2023-01-20T02:37:11.990Z,6.72
2023-01-20T02:39:46.393Z,7.55
2023-01-20T02:42:47.388Z,10.73
2023-01-20T02:45:25.710Z,7.95
2023-01-20T02:48:03.449Z,7.45
2023-01-20T02:50:42.288Z,6.15
2023-01-20T02:53:14.728Z,9.05
2023-01-20T02:55:48.779Z,7.75
2023-01-20T02:58:29.025Z,6.82
2023-01-20T03:01:16.227Z,8.38
2023-01-20T03:03:48.826Z,6.75
2023-01-20T03:06:22.788Z,7.50
2023-01-20T03:08:54.911Z,7.05
2023-01-20T03:11:26.023Z,6.60
2023-01-20T03:14:24.522Z,6.15
2023-01-20T03:16:55.322Z,5.82
2023-01-20T03:19:25.734Z,5.15
2023-01-20T03:21:56.525Z,4.68
2023-01-20T03:24:29.125Z,5.50
2023-01-20T03:27:00.400Z,5.40
2023-01-20T03:29:31.622Z,4.57
2023-01-20T03:32:04.083Z,5.03
2023-01-20T03:34:37.219Z,5.55
2023-01-20T03:37:08.653Z,5.57
2023-01-20T03:39:40.828Z,5.38
2023-01-20T03:42:30.044Z,6.05
2023-01-20T03:45:50.999Z,6.60
2023-01-20T03:48:43.014Z,6.03
2023-01-20T03:51:22.876Z,5.45
2023-01-20T03:54:00.846Z,5.53
2023-01-20T03:56:51.171Z,5.32
2023-01-20T03:59:23.069Z,6.00
2023-01-20T04:01:53.660Z,6.10
2023-01-20T04:04:24.400Z,5.35
2023-01-20T04:06:55.445Z,4.97
2023-01-20T04:09:30.110Z,5.93
2023-01-20T04:12:01.152Z,5.68
2023-01-20T04:14:31.727Z,6.28
2023-01-20T04:17:02.393Z,5.03
2023-01-20T04:19:33.277Z,4.45
2023-01-20T04:22:16.045Z,4.65
2023-01-20T04:24:51.996Z,4.28
2023-01-20T04:27:40.092Z,4.70
2023-01-20T04:30:12.075Z,4.85
2023-01-20T04:32:43.004Z,4.03
2023-01-20T04:35:17.226Z,3.67
2023-01-20T04:37:50.698Z,3.83
2023-01-20T04:40:21.233Z,4.20
2023-01-20T04:42:52.651Z,7.28
2023-01-20T04:45:23.846Z,6.78
2023-01-20T04:47:54.256Z,9.07
2023-01-20T04:50:24.863Z,6.57
2023-01-20T04:53:00.674Z,7.57
2023-01-20T04:55:31.401Z,7.80
2023-01-20T04:58:02.178Z,10.43
2023-01-20T05:00:32.533Z,9.50
2023-01-20T05:03:03.884Z,8.85
2023-01-20T05:05:35.110Z,6.85
2023-01-20T05:08:05.925Z,5.05
2023-01-20T05:10:37.252Z,6.70
2023-01-20T05:13:07.987Z,5.22
2023-01-20T05:15:38.825Z,4.30
2023-01-20T05:18:09.113Z,3.80
2023-01-20T05:20:39.659Z,3.10
2023-01-20T05:23:10.325Z,3.60
2023-01-20T05:25:41.008Z,3.00
2023-01-20T05:28:11.270Z,2.53
2023-01-20T05:30:41.849Z,1.35
2023-01-20T05:33:13.819Z,1.70
2023-01-20T05:35:44.262Z,3.40
2023-01-20T05:38:14.869Z,2.63
2023-01-20T05:40:45.129Z,2.10
2023-01-20T05:43:15.842Z,1.98
2023-01-20T05:45:47.619Z,2.13
2023-01-20T05:48:18.034Z,2.20
2023-01-20T05:50:49.147Z,2.45
2023-01-20T05:53:20.364Z,2.42
2023-01-20T05:55:51.111Z,1.90
2023-01-20T05:58:23.686Z,2.40
2023-01-20T06:00:54.909Z,4.90
2023-01-20T06:03:25.545Z,5.00
2023-01-20T06:06:02.487Z,4.32
2023-01-20T06:08:33.531Z,2.78
2023-01-20T06:11:03.799Z,2.58
2023-01-20T06:13:36.330Z,2.10
2023-01-20T06:16:07.516Z,2.35
2023-01-20T06:18:38.246Z,2.28
2023-01-20T06:21:08.584Z,2.75
2023-01-20T06:23:38.922Z,2.25
2023-01-20T06:26:12.773Z,2.17
2023-01-20T06:28:43.597Z,2.00
2023-01-20T06:31:16.811Z,2.85
2023-01-20T06:33:47.748Z,2.58
2023-01-20T06:36:18.664Z,3.10
2023-01-20T06:38:52.070Z,2.40
2023-01-20T06:41:23.121Z,2.22
2023-01-20T06:43:56.774Z,2.22
2023-01-20T06:46:27.502Z,2.33
2023-01-20T06:49:02.539Z,11.90
2023-01-20T06:51:35.192Z,3.60
2023-01-20T06:54:05.690Z,2.55
2023-01-20T06:56:35.963Z,2.72
2023-01-20T06:59:06.641Z,2.20
2023-01-20T07:01:37.394Z,2.13
2023-01-20T07:04:09.210Z,1.98
2023-01-20T07:06:41.174Z,2.38
2023-01-20T07:09:13.690Z,1.85
2023-01-20T07:11:44.366Z,2.00
2023-01-20T07:14:14.689Z,2.25
2023-01-20T07:16:45.560Z,1.90
2023-01-20T07:19:16.746Z,2.38
2023-01-20T07:21:47.315Z,2.30
2023-01-20T07:24:18.889Z,2.65
2023-01-20T07:26:49.527Z,2.90
2023-01-20T07:29:19.868Z,4.60
2023-01-20T07:31:51.063Z,3.80
2023-01-20T07:34:21.728Z,2.83
2023-01-20T07:36:54.464Z,3.72
2023-01-20T07:39:30.254Z,2.20
2023-01-20T07:42:01.070Z,2.58
2023-01-20T07:44:34.127Z,2.60
2023-01-20T07:47:04.723Z,2.60
2023-01-20T07:49:35.863Z,4.22
2023-01-20T07:52:06.209Z,3.97
2023-01-20T07:54:36.804Z,3.50
2023-01-20T07:57:09.740Z,5.18
2023-01-20T07:59:40.284Z,4.18
2023-01-20T08:02:11.508Z,4.55
2023-01-20T08:04:42.553Z,4.65
2023-01-20T08:07:13.071Z,4.63
2023-01-20T08:09:44.887Z,4.88
2023-01-20T08:12:15.181Z,5.05
2023-01-20T08:14:46.044Z,4.53
2023-01-20T08:17:16.601Z,5.13
2023-01-20T08:19:47.273Z,3.97
2023-01-20T08:22:17.890Z,3.75
2023-01-20T08:24:49.237Z,3.95
2023-01-20T08:27:20.784Z,5.00
2023-01-20T08:29:51.797Z,4.50
2023-01-20T08:32:23.149Z,3.97
2023-01-20T08:34:53.712Z,3.58
2023-01-20T08:37:24.701Z,3.90
2023-01-20T08:39:55.540Z,3.65
2023-01-20T08:42:26.012Z,4.25
2023-01-20T08:44:56.676Z,6.68
2023-01-20T08:47:27.841Z,5.10
2023-01-20T08:49:58.357Z,5.60
2023-01-20T08:52:29.586Z,5.55
2023-01-20T08:55:00.360Z,5.80
2023-01-20T08:57:31.026Z,6.30
2023-01-20T09:00:01.607Z,6.95
2023-01-20T09:02:33.359Z,8.05
2023-01-20T09:05:06.088Z,7.68
2023-01-20T09:07:37.107Z,6.55
2023-01-20T09:10:08.411Z,7.80
2023-01-20T09:12:39.334Z,6.57
2023-01-20T09:15:11.147Z,6.78
2023-01-20T09:17:41.794Z,8.35
2023-01-20T09:20:12.892Z,9.38
2023-01-20T09:22:43.501Z,7.80
2023-01-20T09:25:14.214Z,7.90
2023-01-20T09:27:46.960Z,8.00
2023-01-20T09:30:18.176Z,7.60
2023-01-20T09:32:54.163Z,6.95
2023-01-20T09:35:24.890Z,8.00
2023-01-20T09:38:14.080Z,6.95
2023-01-20T09:41:30.869Z,9.77
2023-01-20T09:44:16.793Z,8.60
2023-01-20T09:47:20.724Z,7.22
2023-01-20T09:50:18.591Z,7.70
2023-01-20T09:53:05.746Z,12.02
2023-01-20T09:55:44.811Z,9.32
2023-01-20T09:58:46.172Z,21.38
2023-01-20T10:01:25.330Z,13.60
2023-01-20T10:04:14.802Z,10.82
2023-01-20T10:07:46.433Z,10.48
2023-01-20T10:10:21.680Z,13.10
2023-01-20T10:12:57.498Z,14.60
2023-01-20T10:15:33.611Z,13.60
2023-01-20T10:18:17.493Z,8.10
2023-01-20T10:21:13.561Z,9.48
2023-01-20T10:23:57.860Z,16.40
2023-01-20T10:26:28.447Z,13.00
2023-01-20T10:29:02.335Z,16.05
2023-01-20T10:31:40.199Z,12.75
2023-01-20T10:34:14.507Z,9.85
2023-01-20T10:36:47.497Z,9.25
2023-01-20T10:39:36.699Z,8.35
2023-01-20T10:42:14.217Z,7.10
2023-01-20T10:44:47.523Z,7.30
2023-01-20T10:47:48.506Z,7.35
2023-01-20T10:50:33.461Z,9.70
2023-01-20T10:53:13.478Z,9.77
2023-01-20T10:56:13.597Z,10.98
2023-01-20T10:58:46.211Z,23.27
2023-01-20T11:01:20.778Z,12.55
2023-01-20T11:03:51.145Z,10.55
2023-01-20T11:06:26.195Z,10.63
2023-01-20T11:08:57.388Z,9.20
2023-01-20T11:11:30.406Z,9.50
2023-01-20T11:14:05.086Z,7.88
2023-01-20T11:16:37.045Z,7.45
2023-01-20T11:19:10.878Z,11.80
2023-01-20T11:21:42.500Z,9.38
2023-01-20T11:24:33.533Z,8.23
2023-01-20T11:27:08.675Z,13.30
2023-01-20T11:29:44.844Z,11.57
2023-01-20T11:32:36.744Z,9.95
2023-01-20T11:35:26.020Z,11.70
2023-01-20T11:37:58.688Z,14.00
2023-01-20T11:40:30.279Z,10.30
2023-01-20T11:43:00.892Z,9.40
2023-01-20T11:45:35.516Z,11.38
2023-01-20T11:48:16.481Z,9.70
2023-01-20T11:50:59.451Z,13.52
2023-01-20T11:53:33.156Z,9.50
2023-01-20T11:56:20.267Z,8.25
2023-01-20T11:59:02.882Z,8.88
2023-01-20T12:02:17.091Z,9.63
2023-01-20T12:05:05.617Z,8.40
2023-01-20T12:07:39.085Z,8.73
2023-01-20T12:10:22.329Z,8.43
2023-01-20T12:12:54.245Z,6.85
2023-01-20T12:15:30.836Z,7.68
2023-01-20T12:18:12.644Z,7.97
2023-01-20T12:20:55.482Z,15.57
2023-01-20T12:23:46.675Z,9.02
2023-01-20T12:26:20.195Z,8.25
2023-01-20T12:29:19.186Z,6.93
2023-01-20T12:31:50.478Z,7.22
2023-01-20T12:34:29.337Z,6.90
2023-01-20T12:37:39.836Z,6.47
2023-01-20T12:40:21.909Z,9.45
2023-01-20T12:43:38.232Z,13.32
2023-01-20T12:46:11.812Z,6.45
2023-01-20T12:48:50.913Z,5.82
2023-01-20T12:51:36.957Z,5.40
2023-01-20T12:54:55.354Z,4.80
2023-01-20T12:57:58.874Z,5.10
2023-01-20T13:00:43.644Z,5.65
2023-01-20T13:03:32.723Z,4.70
2023-01-20T13:06:29.037Z,4.57
2023-01-20T13:09:30.102Z,4.95
2023-01-20T13:12:06.002Z,4.00
2023-01-20T13:14:49.221Z,4.20
2023-01-20T13:17:26.815Z,4.47
2023-01-20T13:19:59.982Z,4.45
2023-01-20T13:22:31.244Z,4.40
2023-01-20T13:25:05.741Z,4.30
2023-01-20T13:27:38.097Z,4.05
2023-01-20T13:30:12.451Z,3.72
2023-01-20T13:32:46.645Z,3.85
2023-01-20T13:35:28.546Z,3.88
2023-01-20T13:38:02.953Z,3.80
2023-01-20T13:40:39.887Z,4.63
2023-01-20T13:43:45.067Z,3.92
2023-01-20T13:46:18.043Z,4.28
2023-01-20T13:49:24.144Z,4.13
2023-01-20T13:51:55.064Z,3.65
2023-01-20T13:54:35.144Z,3.88
2023-01-20T13:57:35.482Z,4.05
2023-01-20T14:00:13.791Z,5.00
2023-01-20T14:02:44.669Z,4.72
2023-01-20T14:05:31.153Z,5.28
2023-01-20T14:08:02.116Z,5.72
2023-01-20T14:10:33.195Z,5.47
2023-01-20T14:13:14.077Z,5.25
2023-01-20T14:15:44.916Z,6.28
2023-01-20T14:18:17.553Z,5.53
2023-01-20T14:21:24.443Z,7.57
2023-01-20T14:23:58.471Z,6.72
2023-01-20T14:26:32.347Z,6.53
2023-01-20T14:29:04.286Z,5.85
2023-01-20T14:31:44.807Z,5.82
2023-01-20T14:34:34.590Z,5.80
2023-01-20T14:37:36.447Z,5.50
2023-01-20T14:40:27.099Z,5.35
2023-01-20T14:43:02.375Z,6.10
2023-01-20T14:45:34.805Z,5.40
2023-01-20T14:48:07.294Z,5.80
2023-01-20T14:50:39.638Z,5.22
2023-01-20T14:53:14.936Z,4.88
2023-01-20T14:56:00.500Z,4.40
2023-01-20T14:58:31.622Z,4.57
2023-01-20T15:01:05.241Z,4.40
2023-01-20T15:03:35.930Z,4.30
2023-01-20T15:06:12.125Z,3.40
2023-01-20T15:09:04.423Z,3.25
2023-01-20T15:11:37.441Z,3.30
2023-01-20T15:14:09.911Z,4.40
2023-01-20T15:16:48.215Z,3.92
2023-01-20T15:19:30.777Z,4.93
2023-01-20T15:22:22.733Z,4.30
2023-01-20T15:24:53.764Z,5.03
2023-01-20T15:27:34.948Z,4.40
2023-01-20T15:30:25.206Z,4.05
2023-01-20T15:32:57.029Z,4.63
2023-01-20T15:35:27.967Z,4.28
2023-01-20T15:37:59.131Z,4.20
2023-01-20T15:40:30.116Z,4.55
2023-01-20T15:43:00.240Z,4.75
2023-01-20T15:45:30.789Z,4.72
2023-01-20T15:48:01.367Z,4.30
2023-01-20T15:50:32.544Z,4.10
2023-01-20T15:53:04.394Z,5.28
2023-01-20T15:55:35.884Z,4.40
2023-01-20T15:58:24.425Z,4.10
2023-01-20T16:00:58.979Z,3.55
2023-01-20T16:03:30.254Z,3.88
2023-01-20T16:06:00.908Z,3.45
2023-01-20T16:08:39.203Z,3.30
2023-01-20T16:11:13.150Z,3.45
2023-01-20T16:13:44.064Z,3.53
2023-01-20T16:16:16.058Z,3.00
2023-01-20T16:18:47.210Z,3.08
2023-01-20T16:21:19.664Z,2.83
2023-01-20T16:23:50.814Z,3.00
2023-01-20T16:26:27.794Z,3.17
2023-01-20T16:28:59.196Z,2.80
2023-01-20T16:31:30.275Z,3.72
2023-01-20T16:34:00.991Z,3.40
2023-01-20T16:36:31.318Z,2.85
2023-01-20T16:39:02.183Z,2.80
2023-01-20T16:41:33.524Z,2.35
2023-01-20T16:44:04.356Z,2.45
2023-01-20T16:46:35.379Z,3.15
2023-01-20T16:49:09.164Z,2.72
2023-01-20T16:51:40.018Z,2.30
2023-01-20T16:54:12.143Z,2.80
2023-01-20T16:56:42.615Z,2.08
2023-01-20T16:59:13.252Z,2.50
2023-01-20T17:01:49.918Z,2.83
2023-01-20T17:04:20.493Z,2.78
2023-01-20T17:06:53.859Z,2.80
2023-01-20T17:09:24.099Z,2.67
2023-01-20T17:11:54.624Z,2.85
2023-01-20T17:14:27.292Z,3.03
2023-01-20T17:17:00.894Z,3.63
2023-01-20T17:19:31.679Z,3.40
2023-01-20T17:22:02.280Z,3.40
2023-01-20T17:24:36.183Z,3.95
2023-01-20T17:27:06.805Z,4.10
2023-01-20T17:29:37.116Z,3.70
2023-01-20T17:32:07.925Z,4.05
2023-01-20T17:34:38.487Z,3.65
2023-01-20T17:37:08.724Z,3.75
2023-01-20T17:39:38.941Z,3.70
2023-01-20T17:42:10.034Z,3.30
2023-01-20T17:44:40.622Z,3.10
2023-01-20T17:47:10.857Z,2.80
2023-01-20T17:50:00.315Z,3.17
2023-01-20T17:52:30.663Z,2.40
2023-01-20T17:55:01.475Z,2.70
2023-01-20T17:57:33.455Z,2.90
2023-01-20T18:00:06.292Z,2.50
2023-01-20T18:02:37.142Z,3.15
2023-01-20T18:05:07.835Z,2.85
2023-01-20T18:07:38.938Z,2.95
2023-01-20T18:10:09.915Z,2.90
2023-01-20T18:12:40.678Z,2.85
2023-01-20T18:15:12.477Z,3.35
2023-01-20T18:17:44.311Z,3.58
2023-01-20T18:20:16.034Z,3.45
2023-01-20T18:22:51.264Z,3.10
2023-01-20T18:25:21.678Z,3.20
2023-01-20T18:27:51.982Z,3.65
2023-01-20T18:30:22.597Z,3.70
2023-01-20T18:33:11.263Z,3.22
2023-01-20T18:35:43.504Z,2.83
2023-01-20T18:38:13.775Z,3.08
2023-01-20T18:40:44.366Z,3.00
2023-01-20T18:43:14.649Z,3.30
2023-01-20T18:45:45.254Z,3.20
2023-01-20T18:48:15.842Z,3.33
2023-01-20T18:50:46.098Z,3.30
2023-01-20T18:53:17.341Z,4.38
2023-01-20T18:55:47.886Z,4.93
2023-01-20T18:58:18.463Z,5.15
2023-01-20T19:00:49.226Z,4.47
2023-01-20T19:03:20.083Z,4.57
2023-01-20T19:05:50.324Z,4.50
2023-01-20T19:08:22.960Z,4.97
2023-01-20T19:10:53.677Z,4.90
2023-01-20T19:13:24.554Z,5.50
2023-01-20T19:15:55.390Z,5.13
2023-01-20T19:18:26.128Z,5.25
2023-01-20T19:20:56.482Z,5.22
2023-01-20T19:23:27.274Z,5.43
2023-01-20T19:26:08.069Z,5.50
2023-01-20T19:28:39.011Z,5.82
2023-01-20T19:31:11.198Z,5.65
2023-01-20T19:33:41.797Z,5.65
2023-01-20T19:36:15.185Z,5.47
2023-01-20T19:38:45.880Z,4.70
2023-01-20T19:41:18.942Z,5.70
2023-01-20T19:43:55.757Z,5.32
2023-01-20T19:46:28.385Z,5.03
2023-01-20T19:48:59.905Z,4.57
2023-01-20T19:51:32.377Z,5.10
2023-01-20T19:54:03.374Z,4.85
2023-01-20T19:56:35.952Z,5.35
2023-01-20T19:59:10.037Z,5.75
2023-01-20T20:01:41.019Z,5.63
2023-01-20T20:04:13.994Z,5.80
2023-01-20T20:06:48.703Z,5.80
2023-01-20T20:09:21.677Z,5.43
2023-01-20T20:11:52.138Z,5.00
2023-01-20T20:14:23.912Z,5.40
2023-01-20T20:16:54.823Z,5.18
2023-01-20T20:19:27.821Z,5.00
2023-01-20T20:21:59.538Z,5.47
2023-01-20T20:24:30.054Z,5.88
2023-01-20T20:27:00.418Z,5.95
2023-01-20T20:29:31.613Z,5.70
2023-01-20T20:32:02.654Z,5.65
2023-01-20T20:34:34.361Z,5.85
2023-01-20T20:37:04.642Z,4.90
2023-01-20T20:39:35.769Z,5.18
2023-01-20T20:42:06.167Z,5.18
2023-01-20T20:44:36.755Z,5.18
2023-01-20T20:47:07.600Z,7.07
2023-01-20T20:49:37.972Z,5.32
2023-01-20T20:52:11.805Z,5.72
2023-01-20T20:54:42.576Z,5.63
2023-01-20T20:57:13.205Z,5.30
2023-01-20T20:59:58.262Z,4.95
2023-01-20T21:02:29.658Z,4.47
2023-01-20T21:04:59.994Z,4.43
2023-01-20T21:07:30.255Z,4.57
2023-01-20T21:10:00.575Z,5.15
2023-01-20T21:12:30.849Z,4.78
2023-01-20T21:15:01.501Z,4.03
2023-01-20T21:17:32.090Z,4.57
2023-01-20T21:20:05.169Z,4.18
2023-01-20T21:22:35.916Z,4.07
2023-01-20T21:25:07.125Z,4.38
2023-01-20T21:27:40.614Z,4.43
2023-01-20T21:30:12.378Z,4.40
2023-01-20T21:32:43.013Z,5.00
2023-01-20T21:35:13.437Z,4.57
2023-01-20T21:37:44.375Z,4.18
2023-01-20T21:40:15.202Z,4.75
2023-01-20T21:42:46.718Z,4.03
2023-01-20T21:45:17.289Z,4.55
2023-01-20T21:47:47.759Z,5.53
2023-01-20T21:50:36.830Z,5.40
2023-01-20T21:53:07.072Z,5.80
2023-01-20T21:55:38.512Z,6.10
2023-01-20T21:58:11.290Z,6.80
2023-01-20T22:00:44.546Z,6.72
2023-01-20T22:03:15.559Z,7.00
2023-01-20T22:05:46.650Z,7.43
2023-01-20T22:08:19.929Z,7.15
2023-01-20T22:11:00.770Z,6.60
2023-01-20T22:13:31.249Z,7.25
2023-01-20T22:16:05.826Z,7.10
2023-01-20T22:18:36.180Z,7.22
2023-01-20T22:21:07.898Z,6.55
2023-01-20T22:23:38.359Z,6.70
2023-01-20T22:26:11.893Z,6.95
2023-01-20T22:28:42.222Z,6.13
2023-01-20T22:31:24.268Z,6.50
2023-01-20T22:33:59.372Z,6.68
2023-01-20T22:36:29.653Z,5.95
2023-01-20T22:39:00.564Z,5.90
2023-01-20T22:41:30.972Z,6.75
2023-01-20T22:44:01.398Z,7.72
2023-01-20T22:46:32.271Z,7.15
2023-01-20T22:49:02.547Z,6.15
2023-01-20T22:51:33.225Z,8.02
2023-01-20T22:54:08.445Z,6.55
2023-01-20T22:56:40.390Z,7.35
2023-01-20T22:59:14.261Z,7.57
2023-01-20T23:01:45.531Z,6.22
2023-01-20T23:04:16.467Z,6.55
2023-01-20T23:06:46.657Z,7.03
2023-01-20T23:09:17.258Z,6.75
2023-01-20T23:11:49.049Z,7.78
2023-01-20T23:14:39.455Z,7.53
2023-01-20T23:17:09.996Z,8.98
2023-01-20T23:19:40.475Z,12.27
2023-01-20T23:22:11.038Z,7.88
2023-01-20T23:24:41.346Z,7.13
2023-01-20T23:27:11.720Z,6.38
2023-01-20T23:29:42.703Z,6.53
2023-01-20T23:32:13.298Z,7.35
2023-01-20T23:34:43.963Z,8.65
2023-01-20T23:37:14.681Z,7.10
2023-01-20T23:39:44.932Z,7.00
2023-01-20T23:42:16.321Z,7.32
2023-01-20T23:44:48.133Z,7.47
2023-01-20T23:47:18.627Z,7.57
2023-01-20T23:49:49.285Z,6.93
2023-01-20T23:52:21.232Z,8.20
2023-01-20T23:54:51.998Z,7.35
2023-01-20T23:57:23.823Z,7.65
2023-01-20T23:59:54.599Z,6.85
